S&P 500   5,199.06
DOW   38,459.08
QQQ   445.37
Fastenal, CarMax fall; Alpine Immune Sciences, Arvinas rise, Thursday, 4/11/2024
Stock market today: Global markets mixed after Wall St rebound led by Big Tech
Dividend Aristocrat Fastenal Goes on Sale: Buy It While It’s Down
How major US stock indexes fared Thursday, 4/11/2024
Closing prices for crude oil, gold and other commodities
Carmax Returns to the Bargain Basement: Buy the Dip? 
Homebuyers’ quandary: to wait or not to wait for lower mortgage rates
S&P 500   5,199.06
DOW   38,459.08
QQQ   445.37
Fastenal, CarMax fall; Alpine Immune Sciences, Arvinas rise, Thursday, 4/11/2024
Stock market today: Global markets mixed after Wall St rebound led by Big Tech
Dividend Aristocrat Fastenal Goes on Sale: Buy It While It’s Down
How major US stock indexes fared Thursday, 4/11/2024
Closing prices for crude oil, gold and other commodities
Carmax Returns to the Bargain Basement: Buy the Dip? 
Homebuyers’ quandary: to wait or not to wait for lower mortgage rates
S&P 500   5,199.06
DOW   38,459.08
QQQ   445.37
Fastenal, CarMax fall; Alpine Immune Sciences, Arvinas rise, Thursday, 4/11/2024
Stock market today: Global markets mixed after Wall St rebound led by Big Tech
Dividend Aristocrat Fastenal Goes on Sale: Buy It While It’s Down
How major US stock indexes fared Thursday, 4/11/2024
Closing prices for crude oil, gold and other commodities
Carmax Returns to the Bargain Basement: Buy the Dip? 
Homebuyers’ quandary: to wait or not to wait for lower mortgage rates
S&P 500   5,199.06
DOW   38,459.08
QQQ   445.37
Fastenal, CarMax fall; Alpine Immune Sciences, Arvinas rise, Thursday, 4/11/2024
Stock market today: Global markets mixed after Wall St rebound led by Big Tech
Dividend Aristocrat Fastenal Goes on Sale: Buy It While It’s Down
How major US stock indexes fared Thursday, 4/11/2024
Closing prices for crude oil, gold and other commodities
Carmax Returns to the Bargain Basement: Buy the Dip? 
Homebuyers’ quandary: to wait or not to wait for lower mortgage rates

PPL (PPL) Institutional Ownership

$26.74
-0.18 (-0.67%)
(As of 04/11/2024 ET)

Institutional Ownership Changes (13F Filings) for PPL (NYSE:PPL)

Current
Institutional Ownership
Percentage
76.99%
Number of
Institutional Buyers
(last 12 months)
463
Total
Institutional Inflows
(last 12 months)
$3.79B
Number of
Institutional Sellers
(last 12 months)
401
Total
Institutional Outflows
(last 12 months)
$1.83B
Get PPL Insider Trade Alerts

Want to know when executives and insiders are buying or selling PPL stock? Sign up for InsiderTrades.com's daily newsletter to get the latest insider transactions delivered to your inbox daily.

Skip Chart & View Institutional Buying and Selling Data

PPL Institutional Buying and Selling by Quarter

PPL Major Shareholders & Ownership History

Reporting DateMajor Shareholder NameShares HeldMarket Value% of PortfolioQuarterly Change in SharesOwnership in CompanyDetails
4/11/2024Royal Fund Management LLC35,695$983K0.1%+5.5%0.005%
4/11/2024Bangor Savings Bank25,170$693K0.1%+4.1%0.003%
4/10/2024 Greenfield Savings Bank8,168$225K0.1%-9.9%0.001%
4/10/2024 Park Avenue Securities LLC15,219$419K0.0%-3.4%0.002%
4/10/2024 Grandview Asset Management LLC164,834$4.54M2.1%-2.6%0.022%
4/10/2024 Czech National Bank129,697$3.57M0.0%+0.5%0.018%
4/10/2024 Fulton Bank N.A.52,787$1.45M0.1%-0.9%0.007%
4/10/2024 Clearview Wealth Advisors LLC15,696$432K0.4%-2.3%0.002%
4/9/2024 Stolper Co51,763$1.43M0.5%+2.0%0.007%
4/9/2024 Alaska Permanent Fund Corp29,226$805K0.0%-16.5%0.004%
4/5/2024 GAMMA Investing LLC7,706$212K0.0%+16.8%0.001%
4/5/2024 Los Angeles Capital Management LLC23,334$642K0.0%-85.2%0.003%
4/5/2024 CWM LLC23,788$655K0.0%-14.5%0.003%
3/29/2024Kapitalo Investimentos Ltda25,900$702K0.1%N/A0.004%
3/27/2024Nomura Holdings Inc.14,858$403K0.0%N/A0.002%
3/26/2024HighPoint Advisor Group LLC9,838$266K0.0%N/A0.001%
3/22/2024PNC Financial Services Group Inc.561,042$15.20M0.0%+1.9%0.076%
3/15/2024B. Riley Wealth Advisors Inc.38,382$1.05M0.0%-14.2%0.005%
3/14/2024Hennessy Advisors Inc.121,319$3.29M0.2%-2.6%0.016%
3/11/2024Vanguard Group Inc.94,054,161$2.55B0.1%-0.3%12.751%
3/5/2024Wellington Management Group LLP21,062,327$570.79M0.1%N/A2.856%
3/1/2024Electron Capital Partners LLC4,890,402$132.53M5.6%+437.5%0.663%
3/1/2024Creekmur Asset Management LLC17,444$473K0.1%N/A0.002%
3/1/2024Goldman Sachs Group Inc.2,093,675$56.74M0.0%-29.7%0.284%
2/28/2024American International Group Inc.193,302$5.24M0.0%-0.9%0.026%
2/28/2024EP Wealth Advisors LLC11,378$308K0.0%+10.0%0.002%
2/26/2024Teachers Retirement System of The State of Kentucky63,381$1.72M0.0%-4.3%0.009%
2/23/2024Chicago Partners Investment Group LLC8,267$210K0.0%-5.4%0.001%
2/21/2024Raleigh Capital Management Inc.34,165$926K0.4%-2.6%0.005%
2/21/2024V Square Quantitative Management LLC17,339$470K0.1%+120.4%0.002%
2/20/2024Quarry LP957$26K0.0%N/A0.000%
2/16/2024Price T Rowe Associates Inc. MD3,645,261$98.79M0.0%+270.4%0.495%
2/16/2024Harbour Investments Inc.2,198$60K0.0%+42.4%0.000%
2/16/2024Public Employees Retirement System of Ohio313,794$8.50M0.0%+2.8%0.043%
2/15/2024Mercer Global Advisors Inc. ADV39,513$1.07M0.0%-18.2%0.005%
2/15/2024Chartwell Investment Partners LLC566,544$15.35M0.5%+23.5%0.077%
2/15/2024Townsquare Capital LLC11,319$307K0.0%N/A0.002%
2/15/2024Systematic Portfolios LLC16,908$458K1.4%N/A0.002%
2/15/2024Dagco Inc.4,376$119K0.1%N/A0.001%
2/15/2024Legal & General Group Plc7,313,669$198.20M0.1%+13.6%0.992%
Weiss issues 'Buy' on AI sleeper stock (Ad)

Based on our Weiss Ratings, we’ve issued a “Buy” on an under-the-radar AI stock. And we share the details at our Artificial Intelligence Town Hall ….

To watch our Town Hall now, click here.
2/15/2024Wexford Capital LP141,546$3.84M0.8%-50.6%0.019%
2/15/2024Barclays PLC2,178,103$59.03M0.0%-11.6%0.295%
2/15/2024Andra AP fonden43,700$1.18M0.1%-61.2%0.006%
2/15/2024Van Lanschot Kempen Investment Management N.V.472,913$12.82M0.2%+5.2%0.064%
2/15/2024Vanguard Group Inc.94,053,986$2.55B0.1%-0.3%12.760%
2/15/2024Voya Investment Management LLC607,327$16.46M0.0%-5.4%0.082%
2/15/2024Vident Advisory LLC8,397$228K0.0%-12.8%0.001%
2/15/2024Modera Wealth Management LLC26,545$719K0.0%+134.8%0.004%
2/15/2024Nuveen Asset Management LLC1,896,550$52.10M0.0%+1.9%0.257%
2/15/2024Price T Rowe Associates Inc. MD3,645,261$98.79M0.0%+270.4%0.495%
2/15/2024Profund Advisors LLC29,798$808K0.0%-2.5%0.004%
2/15/2024Public Sector Pension Investment Board86,531$2.35M0.0%-49.7%0.012%
2/15/2024First County Bank CT 33,277$902K0.4%-9.0%0.005%
2/15/2024Gotham Asset Management LLC219,064$5.94M0.1%-12.4%0.030%
2/15/2024Healthcare of Ontario Pension Plan Trust Fund10,666$289K0.0%-90.8%0.001%
2/15/2024HITE Hedge Asset Management LLC590,260$16.00M1.7%+107.2%0.080%
2/15/2024Baird Financial Group Inc.18,033$489K0.0%-17.7%0.002%
2/15/2024Cohen & Steers Inc.8,952,615$242.62M0.5%+4.0%1.215%
2/15/2024Comerica Bank193,661$5.25M0.0%-6.2%0.026%
2/14/2024Royal Bank of Canada1,465,264$39.71M0.0%+8.0%0.199%
2/14/2024New England Asset Management Inc.267,100$7.24M1.2%-8.5%0.036%
2/14/2024Pathstone Holdings LLC28,290$769K0.0%N/A0.004%
2/14/2024Waverly Advisors LLC23,683$642K0.0%-7.9%0.003%
2/14/2024Kestra Advisory Services LLC25,294$685K0.0%-26.4%0.003%
2/14/2024Point72 Asset Management L.P.5,655,060$153.25M0.4%-11.0%0.767%
2/14/2024Point72 Europe London LLP79,461$2.15M0.3%N/A0.011%
2/14/2024Creative Planning120,428$3.26M0.0%+15.6%0.016%
2/14/2024Putnam Investments LLC61,951$1.68M0.0%-1.8%0.008%
2/14/2024Jacobi Capital Management LLC108,337$2.94M0.3%+8.2%0.015%
2/14/2024BOKF NA4,706$128K0.0%-93.2%0.001%
2/14/2024Hotchkis & Wiley Capital Management LLC15,454,470$418.82M1.5%-2.7%2.097%
2/14/2024Bridgewater Associates LP64,177$1.74M0.0%+23.7%0.009%
2/14/2024Balyasny Asset Management L.P.4,014,707$108.80M0.2%N/A0.545%
2/14/2024Neuberger Berman Group LLC26,827$727K0.0%-90.5%0.004%
2/14/2024Cullen Capital Management LLC2,466,391$66.84M1.0%-9.3%0.335%
2/14/2024Nomura Holdings Inc.14,858$403K0.0%N/A0.002%
2/14/2024Cresset Asset Management LLC159,389$4.36M0.0%+15.8%0.022%
2/14/2024State of Tennessee Treasury Department322,246$8.73M0.0%+175.8%0.044%
2/14/2024Verition Fund Management LLC947,992$25.69M0.2%N/A0.129%
2/14/2024Logan Capital Management Inc.1,195$32K0.0%-42.1%0.000%
2/14/2024Sei Investments Co.805,667$21.83M0.0%-7.2%0.109%
2/14/2024Scout Investments Inc.1,450,356$39.31M1.0%-19.4%0.197%
2/14/2024Teilinger Capital Ltd.1,233,300$33.42M17.9%-16.0%0.167%
2/14/2024Schroder Investment Management Group55,084$1.49M0.0%-12.0%0.007%
2/13/2024Envestnet Asset Management Inc.1,730,006$46.88M0.0%+11.5%0.235%
2/13/2024Stephens Inc. AR24,861$674K0.0%-3.0%0.003%
2/13/2024Northern Trust Corp6,828,920$185.06M0.0%-0.3%0.926%
2/13/2024Pinebridge Investments L.P.522,420$14.16M0.1%+23.8%0.071%
2/13/2024American International Group Inc.193,302$5.24M0.0%-0.9%0.026%
2/13/2024Cibc World Markets Corp94,876$2.57M0.0%+133.2%0.013%
Gold Hits New All-Time Highs (Ad)

Due to both domestic and global issues, the trajectory of this precious metal could skyrocket in the coming months… Which is why billionaires and Central Banks alike are scooping up gold at record rates!

Read Colonial Metals' new Precious Metals Investment Guide.
2/13/2024Magellan Asset Management Ltd594,794$16.12M0.2%+0.9%0.081%
2/13/2024Gabelli Funds LLC577,632$15.65M0.1%+1.1%0.078%
2/13/2024Public Employees Retirement Association of Colorado65,620$1.78M0.0%+1,642.0%0.009%
2/13/2024Bollard Group LLC125,833$3.41M0.1%-66.6%0.017%
2/13/20241832 Asset Management L.P.79,619$2.16M0.0%-1.9%0.011%
2/13/2024Cetera Advisor Networks LLC155,111$4.20M0.0%-1.7%0.021%
2/13/2024Oppenheimer & Co. Inc.19,586$531K0.0%-4.2%0.003%
2/13/2024Tower Research Capital LLC TRC 96,100$2.60M0.0%+92.2%0.013%
2/13/2024First Trust Advisors LP748,026$20.27M0.0%-6.4%0.101%
2/13/2024Goldman Sachs Group Inc.2,093,675$56.74M0.0%-29.7%0.284%
(Data available from 1/1/2016 forward)

PPL Institutional Ownership - Frequently Asked Questions

Who are the largest shareholders of PPL shares?

During the previous two years, 852 institutional investors and hedge funds held shares of PPL. The most heavily invested institutionals were Aspire Private Capital LLC ($22.07B), Vanguard Group Inc. ($2.55B), BlackRock Inc. ($1.84B), State Street Corp ($1.05B), Wellington Management Group LLP ($570.79M), Hotchkis & Wiley Capital Management LLC ($418.82M), and Geode Capital Management LLC ($409.57M).Learn more on PPL's institutional investors.

What percentage of PPL stock is owned by institutional investors?

76.99% of PPL stock is owned by institutional investors. Learn more on PPL's institutional investor holdings.

Which institutional investors have been buying PPL stock?

Of the 711 institutional investors that purchased PPL stock in the last 24 months, the following investors and hedge funds have bought the highest volume of shares: Wellington Management Group LLP ($21.13M), Lazard Asset Management LLC ($11.72M), Mitsubishi UFJ Trust & Banking Corp ($9.84M), BlackRock Inc. ($9.49M), Bank Julius Baer & Co. Ltd Zurich ($6.28M), Norges Bank ($6.00M), and Zimmer Partners LP ($5.95M).

How much institutional buying is happening at PPL?

Institutional investors have bought a total of 234,503,542 shares in the last 24 months. This purchase volume represents approximately $6.31B in transactions.

Which PPL major shareholders have been selling company stock?

Of the 574 institutional investors that sold PPL stock in the last 24 months, the following investors and hedge funds have sold the highest volume of shares: Macquarie Group Ltd. ($8.90M), Bank of New York Mellon Corp ($8.33M), Barclays PLC ($8.23M), BlackRock Inc. ($7.80M), BROOKFIELD Corp ON ($5.40M), Zimmer Partners LP ($5.22M), and State Street Corp ($4.82M).

How much institutional selling is happening at PPL?

Institutional investors have sold a total of 137,866,700 shares in the last 24 months. This volume of shares sold represents approximately $3.73B in transactions.


This page (NYSE:PPL) was last updated on 4/12/2024 by MarketBeat.com Staff

From Our Partners